Time;durP1;ratioP1;P1;durP2;ratioP2;P2;SDS_P1;SDS_P2;PMS_P1;PMS_P2;Temp;Humidity;BMP_temperature;BMP_pressure;BME280_temperature;BME280_humidity;BME280_pressure;Samples;Min_cycle;Max_cycle;Signal;HPM_P1;HPM_P2
2022/10/06 00:01:20;;;;;;;3.60;3.10;;;14.60;99.90;;;;;;5053270;28;20422;-70
2022/10/06 00:03:49;;;;;;;4.93;4.43;;;14.50;99.90;;;;;;5059867;28;20862;-70
2022/10/06 00:06:18;;;;;;;4.10;3.50;;;14.50;99.90;;;;;;5072855;28;20492;-70
2022/10/06 00:08:47;;;;;;;7.00;4.80;;;14.50;99.90;;;;;;5072850;28;20423;-69
2022/10/06 00:11:16;;;;;;;3.43;3.13;;;14.60;99.90;;;;;;5070204;28;20397;-70
2022/10/06 00:13:45;;;;;;;5.77;3.10;;;14.60;99.90;;;;;;5049974;28;20503;-71
2022/10/06 00:16:17;;;;;;;4.90;4.07;;;14.50;99.90;;;;;;5044296;28;20444;-71
2022/10/06 00:18:47;;;;;;;5.47;3.80;;;14.50;99.90;;;;;;5034315;28;20435;-72
2022/10/06 00:21:16;;;;;;;5.43;4.30;;;14.50;99.90;;;;;;5050604;28;20900;-70
2022/10/06 00:23:45;;;;;;;4.20;3.80;;;14.60;99.90;;;;;;5050831;28;20814;-71
2022/10/06 00:26:15;;;;;;;4.33;3.67;;;14.60;99.90;;;;;;5063090;28;20454;-70
2022/10/06 00:28:46;;;;;;;9.53;4.20;;;14.60;99.90;;;;;;5064838;28;20428;-69
2022/10/06 00:31:18;;;;;;;6.77;4.67;;;14.60;99.90;;;;;;5033890;28;20455;-72
2022/10/06 00:33:50;;;;;;;4.77;4.10;;;14.60;99.90;;;;;;5047647;28;20467;-71
2022/10/06 00:36:20;;;;;;;5.10;4.60;;;14.60;99.90;;;;;;5030943;28;20447;-70
2022/10/06 00:38:50;;;;;;;4.93;4.43;;;14.60;99.90;;;;;;5029567;28;20439;-70
2022/10/06 00:41:19;;;;;;;4.43;3.30;;;14.60;99.90;;;;;;5030547;28;20497;-71
2022/10/06 00:43:50;;;;;;;4.90;3.77;;;14.60;99.90;;;;;;5033947;28;20420;-70
2022/10/06 00:46:25;;;;;;;9.07;3.40;;;14.70;99.90;;;;;;5052329;28;20523;-71
2022/10/06 00:49:00;;;;;;;7.90;3.53;;;14.80;99.90;;;;;;5070693;28;20612;-71
2022/10/06 00:51:30;;;;;;;4.43;3.03;;;14.90;99.90;;;;;;5070268;28;20438;-70
2022/10/06 00:53:59;;;;;;;4.70;3.50;;;15.00;99.90;;;;;;5057134;28;20480;-72
2022/10/06 00:56:28;;;;;;;4.03;3.63;;;15.00;99.90;;;;;;5048795;28;20422;-71
2022/10/06 00:58:56;;;;;;;5.50;4.30;;;15.10;99.90;;;;;;5050708;28;20489;-71
2022/10/06 01:01:27;;;;;;;7.80;4.60;;;15.10;99.90;;;;;;5050932;28;20715;-71
2022/10/06 01:04:03;;;;;;;4.67;3.97;;;15.20;99.90;;;;;;5040961;28;20430;-70
2022/10/06 01:06:44;;;;;;;4.40;4.00;;;15.30;99.90;;;;;;5030325;28;20577;-70
2022/10/06 01:09:14;;;;;;;4.87;3.60;;;15.40;99.90;;;;;;5047222;28;20444;-71
2022/10/06 01:11:44;;;;;;;7.50;3.77;;;15.50;99.90;;;;;;5049344;28;20846;-72
2022/10/06 01:14:13;;;;;;;6.57;3.77;;;15.60;99.90;;;;;;5046853;28;21008;-70
2022/10/06 01:16:46;;;;;;;3.90;3.20;;;15.70;99.90;;;;;;5031357;28;20840;-69
2022/10/06 01:19:25;;;;;;;5.50;4.90;;;15.70;99.90;;;;;;5048698;28;20410;-69
2022/10/06 01:21:56;;;;;;;4.63;3.67;;;15.80;99.90;;;;;;5048357;28;20490;-70
2022/10/06 01:24:27;;;;;;;4.20;3.40;;;15.80;99.90;;;;;;5042388;28;20763;-71
2022/10/06 01:26:57;;;;;;;7.10;4.20;;;15.80;99.90;;;;;;5056827;28;20436;-71
2022/10/06 01:29:26;;;;;;;5.33;3.30;;;15.70;99.90;;;;;;5069738;28;20411;-71
2022/10/06 01:31:55;;;;;;;5.70;3.97;;;15.70;99.90;;;;;;5050688;28;20421;-73
2022/10/06 01:34:24;;;;;;;4.37;3.00;;;15.70;99.90;;;;;;5030608;28;20473;-71
2022/10/06 01:36:53;;;;;;;3.20;2.90;;;15.60;99.90;;;;;;5039683;28;20403;-69
2022/10/06 01:39:22;;;;;;;5.27;3.80;;;15.60;99.90;;;;;;5058696;28;20454;-71
2022/10/06 01:41:52;;;;;;;4.17;3.53;;;15.50;99.90;;;;;;5055837;28;20429;-69
2022/10/06 01:44:20;;;;;;;4.37;2.87;;;15.40;99.90;;;;;;5058232;28;20448;-69
2022/10/06 01:46:51;;;;;;;6.63;3.00;;;15.30;99.90;;;;;;5050707;28;20414;-70
2022/10/06 01:49:19;;;;;;;5.13;3.10;;;15.30;99.90;;;;;;5043078;28;20405;-70
2022/10/06 01:51:49;;;;;;;6.63;4.23;;;15.20;99.90;;;;;;5059547;28;20419;-69
2022/10/06 01:54:17;;;;;;;3.97;3.20;;;15.20;99.90;;;;;;5067322;28;20444;-69
2022/10/06 01:56:46;;;;;;;4.17;3.77;;;15.10;99.90;;;;;;5053719;28;20431;-71
2022/10/06 01:59:16;;;;;;;4.07;3.60;;;15.10;99.90;;;;;;5048251;28;20492;-71
2022/10/06 02:01:45;;;;;;;4.20;3.80;;;14.90;99.90;;;;;;5048022;28;20470;-70
2022/10/06 02:04:14;;;;;;;5.70;3.70;;;14.90;99.90;;;;;;5047821;28;20406;-70
2022/10/06 02:06:44;;;;;;;5.50;3.00;;;14.90;99.90;;;;;;5047620;28;20406;-71
2022/10/06 02:09:13;;;;;;;4.57;3.50;;;14.80;99.90;;;;;;5035362;28;20407;-70
2022/10/06 02:11:44;;;;;;;3.43;3.13;;;14.80;99.90;;;;;;5033908;28;20414;-70
2022/10/06 02:14:12;;;;;;;5.20;3.43;;;14.90;99.90;;;;;;5028908;28;20528;-71
2022/10/06 02:16:42;;;;;;;3.87;3.53;;;14.90;99.90;;;;;;5028092;28;20670;-71
2022/10/06 02:19:12;;;;;;;4.17;3.50;;;14.80;99.90;;;;;;5028034;28;20598;-71
2022/10/06 02:21:40;;;;;;;6.20;3.73;;;14.80;99.90;;;;;;5042619;28;20909;-70
2022/10/06 02:24:10;;;;;;;4.00;3.60;;;14.70;99.90;;;;;;5068701;28;20405;-71
2022/10/06 02:26:38;;;;;;;4.07;3.23;;;14.80;99.90;;;;;;5041502;28;20473;-71
2022/10/06 02:29:08;;;;;;;4.43;3.80;;;14.70;99.90;;;;;;5065360;28;20466;-71
2022/10/06 02:31:36;;;;;;;11.33;4.17;;;14.70;99.90;;;;;;5048090;28;20458;-70
2022/10/06 02:34:07;;;;;;;4.93;4.13;;;14.70;99.90;;;;;;5048072;28;20438;-72
2022/10/06 02:36:35;;;;;;;5.40;4.37;;;14.70;99.90;;;;;;5047665;28;20425;-72
2022/10/06 02:39:05;;;;;;;4.53;3.80;;;14.60;99.90;;;;;;5046343;28;20443;-71
2022/10/06 02:41:34;;;;;;;5.00;3.80;;;14.60;99.90;;;;;;5028943;22;20855;-70
2022/10/06 02:44:04;;;;;;;4.33;3.93;;;14.70;99.90;;;;;;5028354;28;20410;-70
2022/10/06 02:46:32;;;;;;;4.73;3.90;;;14.70;99.90;;;;;;5003382;28;20482;-69
2022/10/06 02:49:02;;;;;;;6.23;3.83;;;14.70;99.90;;;;;;5014133;28;20444;-71
2022/10/06 02:51:32;;;;;;;5.60;4.00;;;14.70;99.90;;;;;;5015409;28;20421;-71
2022/10/06 02:54:01;;;;;;;5.17;3.70;;;14.90;99.90;;;;;;5012396;28;20475;-70
2022/10/06 02:56:30;;;;;;;4.83;3.77;;;14.90;99.90;;;;;;5019152;28;20422;-70
2022/10/06 02:58:58;;;;;;;4.30;3.90;;;15.00;99.90;;;;;;5017654;28;20403;-70
2022/10/06 03:01:34;;;;;;;6.73;4.50;;;15.10;99.90;;;;;;5009846;28;20407;-70
2022/10/06 03:04:13;;;;;;;4.20;3.53;;;15.20;99.90;;;;;;5020709;28;20444;-70
2022/10/06 03:06:44;;;;;;;4.73;3.97;;;15.30;99.90;;;;;;5012701;28;20462;-70
2022/10/06 03:09:38;;;;;;;11.30;4.10;;;15.40;99.90;;;;;;5004185;28;20969;-71
2022/10/06 03:12:09;;;;;;;4.50;4.10;;;15.50;99.90;;;;;;5012231;28;20433;-69
2022/10/06 03:14:40;;;;;;;3.93;3.60;;;15.50;99.90;;;;;;5018736;28;20679;-71
2022/10/06 03:17:09;;;;;;;4.90;4.00;;;15.50;99.90;;;;;;5015976;28;20879;-71
2022/10/06 03:19:44;;;;;;;5.93;3.83;;;15.60;99.90;;;;;;5010875;28;20454;-69
2022/10/06 03:22:15;;;;;;;4.10;2.93;;;15.60;99.90;;;;;;5030374;28;20943;-72
2022/10/06 03:24:51;;;;;;;3.80;3.40;;;15.70;99.90;;;;;;5019537;28;20501;-69
2022/10/06 03:27:21;;;;;;;6.23;3.90;;;15.80;99.90;;;;;;5011899;28;20433;-69
2022/10/06 03:29:52;;;;;;;4.13;3.80;;;15.80;99.90;;;;;;5018607;28;20444;-69
2022/10/06 03:32:23;;;;;;;4.07;3.40;;;15.90;99.90;;;;;;5012915;28;20558;-71
2022/10/06 03:34:53;;;;;;;3.57;2.97;;;15.90;99.90;;;;;;5027198;28;20450;-69
2022/10/06 03:37:37;;;;;;;3.67;3.20;;;16.00;99.90;;;;;;5014226;28;20422;-69
2022/10/06 03:40:07;;;;;;;3.80;3.20;;;16.00;99.90;;;;;;5006430;28;20809;-70
2022/10/06 03:42:36;;;;;;;6.73;3.60;;;15.90;99.90;;;;;;5007103;28;20427;-70
2022/10/06 03:45:06;;;;;;;6.30;3.97;;;15.80;99.90;;;;;;5021528;28;20460;-70
2022/10/06 03:47:34;;;;;;;4.77;3.67;;;15.80;99.90;;;;;;5024993;28;20974;-70
2022/10/06 03:50:10;;;;;;;4.07;3.67;;;15.70;99.90;;;;;;5027833;28;20422;-70
2022/10/06 03:52:40;;;;;;;4.40;4.00;;;15.70;99.90;;;;;;5023260;28;20461;-70
2022/10/06 03:55:10;;;;;;;6.67;4.53;;;15.70;99.90;;;;;;5016898;28;20459;-69
2022/10/06 03:57:40;;;;;;;4.47;3.70;;;15.60;99.90;;;;;;5024622;28;20482;-70
2022/10/06 04:00:10;;;;;;;4.67;3.67;;;15.60;99.90;;;;;;5030252;28;20438;-70
2022/10/06 04:02:39;;;;;;;8.00;3.87;;;15.60;99.90;;;;;;5015546;28;20435;-70
2022/10/06 04:05:09;;;;;;;8.37;5.20;;;15.60;99.90;;;;;;5010639;28;20872;-69
2022/10/06 04:07:38;;;;;;;4.33;3.40;;;15.70;99.90;;;;;;5001631;28;20462;-71
2022/10/06 04:10:10;;;;;;;3.90;3.50;;;15.70;99.90;;;;;;5026000;28;20415;-70
2022/10/06 04:12:52;;;;;;;3.40;3.10;;;15.70;99.90;;;;;;5003790;28;20449;-70
2022/10/06 04:15:22;;;;;;;6.53;4.03;;;15.80;99.90;;;;;;5005795;28;20831;-69
2022/10/06 04:17:50;;;;;;;4.80;3.50;;;15.80;99.90;;;;;;5012331;28;20419;-70
2022/10/06 04:20:19;;;;;;;6.60;3.87;;;15.80;99.90;;;;;;5006324;28;20451;-69
2022/10/06 04:22:48;;;;;;;5.10;3.33;;;15.80;99.90;;;;;;5011201;28;20447;-70
2022/10/06 04:25:18;;;;;;;3.50;3.00;;;15.80;99.90;;;;;;5011824;28;20438;-70
2022/10/06 04:27:46;;;;;;;4.00;2.63;;;15.70;99.90;;;;;;5013816;28;20498;-71
2022/10/06 04:30:17;;;;;;;2.43;2.20;;;15.70;99.90;;;;;;5011859;28;20435;-70
2022/10/06 04:32:46;;;;;;;2.43;1.90;;;15.80;99.90;;;;;;5012321;28;20854;-70
2022/10/06 04:35:15;;;;;;;1.70;1.53;;;15.70;99.90;;;;;;5031510;28;20567;-70
2022/10/06 04:37:45;;;;;;;1.50;1.10;;;15.70;99.90;;;;;;5007205;28;20790;-70
2022/10/06 04:40:14;;;;;;;4.80;2.30;;;15.70;99.90;;;;;;5010516;28;20428;-71
2022/10/06 04:42:45;;;;;;;1.50;0.97;;;15.80;99.90;;;;;;4999521;28;20488;-70
2022/10/06 04:45:16;;;;;;;2.13;1.00;;;15.80;99.90;;;;;;5002355;28;20442;-69
2022/10/06 04:47:48;;;;;;;2.80;1.27;;;15.80;99.90;;;;;;5009577;28;20456;-69
2022/10/06 04:50:17;;;;;;;1.77;0.80;;;15.90;99.90;;;;;;5011795;28;20403;-70
2022/10/06 04:53:05;;;;;;;1.60;1.00;;;15.80;99.90;;;;;;5011294;28;20441;-68
2022/10/06 04:55:34;;;;;;;2.80;1.40;;;15.80;99.90;;;;;;5027105;28;20553;-69
2022/10/06 04:58:05;;;;;;;2.53;0.87;;;15.80;99.90;;;;;;4992672;28;20440;-70
2022/10/06 05:00:34;;;;;;;2.70;1.00;;;15.70;99.90;;;;;;5009980;28;20441;-69
2022/10/06 05:03:04;;;;;;;1.20;0.90;;;15.60;99.90;;;;;;4993683;28;20421;-69
2022/10/06 05:05:32;;;;;;;1.83;1.00;;;15.60;99.90;;;;;;4989679;28;20470;-70
2022/10/06 05:08:02;;;;;;;1.50;0.87;;;15.60;99.90;;;;;;5006686;28;20939;-71
2022/10/06 05:10:31;;;;;;;3.03;1.30;;;15.60;99.90;;;;;;5009429;28;20940;-70
2022/10/06 05:13:02;;;;;;;1.40;1.10;;;15.60;99.90;;;;;;5009572;28;20575;-71
2022/10/06 05:15:32;;;;;;;1.30;0.90;;;15.60;99.90;;;;;;5008958;28;20477;-69
2022/10/06 05:18:01;;;;;;;1.20;0.70;;;15.50;99.90;;;;;;5009213;28;20692;-69
2022/10/06 05:20:30;;;;;;;1.00;0.80;;;15.50;99.90;;;;;;5008961;28;20415;-70
2022/10/06 05:22:59;;;;;;;1.93;1.10;;;15.50;99.90;;;;;;5009109;28;20465;-70
2022/10/06 05:25:27;;;;;;;5.27;0.80;;;15.50;99.90;;;;;;5006073;28;20440;-68
2022/10/06 05:27:56;;;;;;;1.00;0.63;;;15.40;99.90;;;;;;5017493;28;20886;-70
2022/10/06 05:30:25;;;;;;;3.63;1.00;;;15.40;99.90;;;;;;4996204;28;20780;-69
2022/10/06 05:32:55;;;;;;;1.23;0.73;;;15.30;99.90;;;;;;5038410;28;20448;-69
2022/10/06 05:35:24;;;;;;;2.03;1.00;;;15.20;99.90;;;;;;5014901;28;20507;-68
2022/10/06 05:38:02;;;;;;;3.13;0.70;;;15.20;99.40;;;;;;5012153;28;20439;-69
2022/10/06 05:40:31;;;;;;;2.20;0.80;;;15.10;98.40;;;;;;5014149;28;20420;-68
2022/10/06 05:43:00;;;;;;;1.33;0.93;;;15.10;97.90;;;;;;5006899;28;20531;-69
2022/10/06 05:45:29;;;;;;;1.20;0.83;;;15.00;97.30;;;;;;5004570;28;20435;-70
2022/10/06 05:48:00;;;;;;;2.33;1.90;;;15.00;97.80;;;;;;5017886;28;20432;-71
2022/10/06 05:50:30;;;;;;;1.93;0.80;;;14.90;99.10;;;;;;5008720;28;20444;-71
2022/10/06 05:52:58;;;;;;;2.37;0.90;;;14.90;99.50;;;;;;5011273;28;20402;-69
2022/10/06 05:55:27;;;;;;;3.37;1.00;;;14.90;99.80;;;;;;5018242;28;20474;-69
2022/10/06 05:57:56;;;;;;;1.53;0.70;;;14.80;98.60;;;;;;5010622;28;20483;-70
2022/10/06 06:00:24;;;;;;;1.73;0.90;;;14.80;98.60;;;;;;5008608;28;20419;-70
2022/10/06 06:02:53;;;;;;;1.20;0.70;;;14.70;97.90;;;;;;4996813;28;20441;-71
2022/10/06 06:05:23;;;;;;;1.17;0.80;;;14.60;97.20;;;;;;5008126;28;21022;-70
2022/10/06 06:07:52;;;;;;;1.33;0.73;;;14.60;96.50;;;;;;5008726;28;20918;-70
2022/10/06 06:10:21;;;;;;;1.30;1.00;;;14.50;96.80;;;;;;5011884;28;20509;-72
2022/10/06 06:12:49;;;;;;;3.80;1.00;;;14.50;97.90;;;;;;5024927;28;20494;-71
2022/10/06 06:18:28;;;;;;;2.90;0.97;;;14.40;99.90;;;;;;5004065;28;20407;-69
2022/10/06 06:21:00;;;;;;;3.47;0.80;;;14.40;99.90;;;;;;5016214;28;20437;-70
2022/10/06 06:23:34;;;;;;;1.17;0.67;;;14.50;99.90;;;;;;5013954;28;21000;-69
2022/10/06 06:26:05;;;;;;;2.27;0.77;;;14.60;99.10;;;;;;5012266;28;20469;-69
2022/10/06 06:28:39;;;;;;;1.93;0.90;;;14.70;98.70;;;;;;5011078;28;20793;-71
2022/10/06 06:31:09;;;;;;;1.73;0.90;;;14.70;98.00;;;;;;5012038;28;21003;-71
2022/10/06 06:33:40;;;;;;;1.77;0.80;;;14.70;97.80;;;;;;5013292;28;20446;-71
2022/10/06 06:36:16;;;;;;;1.23;0.77;;;14.70;95.80;;;;;;5011912;28;20548;-69
2022/10/06 06:38:53;;;;;;;2.37;0.83;;;14.80;94.90;;;;;;5018036;28;20766;-69
2022/10/06 06:41:24;;;;;;;5.27;0.77;;;14.80;95.70;;;;;;5011854;28;20799;-70
2022/10/06 06:44:05;;;;;;;2.33;0.60;;;14.70;93.60;;;;;;5019052;28;20451;-69
2022/10/06 06:46:53;;;;;;;2.00;0.80;;;14.70;93.80;;;;;;4998834;28;20814;-69
2022/10/06 06:49:21;;;;;;;4.00;1.17;;;14.80;93.30;;;;;;5012537;28;20441;-69
2022/10/06 06:51:56;;;;;;;5.03;0.83;;;14.80;93.40;;;;;;5011685;28;20428;-70
2022/10/06 06:54:27;;;;;;;2.50;0.80;;;14.90;93.80;;;;;;5010790;28;20437;-69
2022/10/06 06:57:02;;;;;;;1.77;0.90;;;15.10;93.40;;;;;;5002998;28;21033;-70
2022/10/06 06:59:32;;;;;;;3.43;0.90;;;15.20;93.20;;;;;;5014815;28;20403;-69
2022/10/06 07:02:02;;;;;;;1.83;0.80;;;15.10;92.00;;;;;;5011702;28;20416;-69
2022/10/06 07:04:36;;;;;;;2.27;0.90;;;15.10;92.60;;;;;;5007807;28;20453;-70
2022/10/06 07:07:08;;;;;;;8.83;1.00;;;15.10;93.90;;;;;;5027317;28;20463;-70
2022/10/06 07:09:37;;;;;;;3.73;1.27;;;15.10;96.00;;;;;;5032583;28;20430;-69
2022/10/06 07:12:11;;;;;;;1.80;0.97;;;15.20;95.10;;;;;;5008253;28;20416;-69
2022/10/06 07:25:53;;;;;;;1.60;0.90;;;15.10;94.80;;;;;;5014241;28;20442;-69
2022/10/06 07:28:22;;;;;;;6.80;2.80;;;15.20;94.30;;;;;;5017271;28;20419;-70
2022/10/06 07:30:51;;;;;;;3.40;2.37;;;15.20;93.20;;;;;;5012463;28;20443;-69
2022/10/06 07:33:21;;;;;;;3.53;3.23;;;15.20;95.10;;;;;;5014595;28;20399;-69
2022/10/06 07:35:51;;;;;;;3.83;1.43;;;15.30;94.50;;;;;;5012305;28;20964;-68
2022/10/06 07:38:24;;;;;;;2.83;1.10;;;15.30;92.80;;;;;;5017603;28;20481;-71
2022/10/06 07:40:55;;;;;;;1.83;1.13;;;15.30;91.50;;;;;;5016223;28;20780;-69
2022/10/06 07:43:45;;;;;;;2.20;1.10;;;15.30;90.80;;;;;;5002388;28;20873;-69
2022/10/06 07:46:17;;;;;;;3.87;1.57;;;15.20;91.00;;;;;;5012485;28;20856;-70
2022/10/06 07:49:26;;;;;;;6.23;1.33;;;15.30;90.50;;;;;;5005029;28;20478;-70
2022/10/06 07:51:55;;;;;;;2.67;1.20;;;15.20;97.40;;;;;;5014129;28;21005;-69
2022/10/06 07:54:25;;;;;;;4.43;1.37;;;15.30;92.10;;;;;;5022581;28;20433;-72
2022/10/06 07:57:13;;;;;;;5.40;1.30;;;15.40;89.70;;;;;;5016376;28;20623;-70
2022/10/06 07:59:43;;;;;;;6.20;1.30;;;15.50;84.80;;;;;;5014818;28;20432;-70
2022/10/06 08:02:12;;;;;;;6.80;1.40;;;15.60;77.70;;;;;;5014350;28;20400;-69
2022/10/06 08:04:40;;;;;;;2.47;1.00;;;15.60;74.40;;;;;;5015526;28;20483;-70
2022/10/06 08:07:11;;;;;;;4.50;1.77;;;15.60;77.40;;;;;;5013793;28;20491;-70
2022/10/06 08:09:41;;;;;;;3.60;2.87;;;15.60;67.70;;;;;;5010864;28;20399;-68
2022/10/06 08:14:52;;;;;;;3.93;1.43;;;15.80;64.00;;;;;;4997811;28;20501;-71
2022/10/06 08:17:21;;;;;;;1.83;1.10;;;15.80;59.40;;;;;;5008735;28;20464;-71
2022/10/06 08:19:50;;;;;;;2.47;1.10;;;15.70;57.60;;;;;;5007883;28;20903;-72
2022/10/06 08:22:18;;;;;;;3.20;1.33;;;15.70;57.00;;;;;;5010706;28;20503;-70
2022/10/06 08:24:48;;;;;;;6.43;1.43;;;15.90;58.30;;;;;;5010561;28;20833;-72
2022/10/06 08:27:36;;;;;;;1.53;1.03;;;16.10;68.00;;;;;;5005047;28;20941;-70
2022/10/06 08:30:06;;;;;;;2.87;1.10;;;16.10;50.90;;;;;;5002744;28;21121;-69
2022/10/06 08:32:35;;;;;;;1.40;0.90;;;16.30;50.70;;;;;;5003312;28;20524;-71
2022/10/06 08:35:04;;;;;;;1.63;0.90;;;16.50;49.10;;;;;;5019352;28;20492;-70
2022/10/06 08:37:33;;;;;;;3.30;1.00;;;16.60;46.50;;;;;;5010607;28;20467;-70
2022/10/06 08:40:04;;;;;;;4.70;1.13;;;16.60;42.70;;;;;;5009332;28;20438;-71
2022/10/06 08:42:40;;;;;;;3.93;1.10;;;16.40;39.30;;;;;;5011495;28;20543;-70
2022/10/06 08:45:14;;;;;;;12.10;2.03;;;16.40;36.70;;;;;;5007179;28;20435;-72
2022/10/06 08:47:52;;;;;;;7.53;1.23;;;16.30;35.80;;;;;;4992764;28;20495;-69
2022/10/06 08:50:23;;;;;;;3.60;1.20;;;16.30;34.60;;;;;;5011407;28;20403;-71
2022/10/06 08:53:01;;;;;;;4.50;1.57;;;16.50;34.60;;;;;;5009757;28;20484;-70
2022/10/06 08:55:42;;;;;;;1.67;1.13;;;16.30;31.10;;;;;;5004553;28;20452;-70
2022/10/06 08:58:21;;;;;;;2.60;0.90;;;16.00;29.30;;;;;;5010695;28;20542;-72
2022/10/06 09:00:55;;;;;;;5.30;1.20;;;15.80;28.60;;;;;;5011617;28;20425;-69
2022/10/06 09:03:28;;;;;;;6.03;1.20;;;15.80;37.50;;;;;;5012165;28;20753;-70
2022/10/06 09:06:05;;;;;;;1.87;1.13;;;15.80;27.90;;;;;;5011701;28;20511;-71
2022/10/06 09:08:44;;;;;;;6.83;1.73;;;15.90;27.20;;;;;;5012250;28;20437;-71
2022/10/06 09:11:36;;;;;;;5.53;1.50;;;16.10;26.90;;;;;;5011977;28;20450;-69
2022/10/06 09:14:10;;;;;;;6.70;1.67;;;16.00;26.10;;;;;;5010638;28;20754;-72
2022/10/06 09:16:43;;;;;;;11.23;1.30;;;16.00;25.80;;;;;;5010439;28;20418;-70
2022/10/06 09:19:19;;;;;;;1.60;1.27;;;16.20;26.00;;;;;;5010354;28;20464;-70
2022/10/06 09:21:50;;;;;;;8.00;1.80;;;16.50;24.30;;;;;;4999823;28;20591;-70
2022/10/06 09:24:30;;;;;;;2.63;0.90;;;16.60;22.50;;;;;;5010203;28;20834;-71
2022/10/06 09:27:00;;;;;;;4.23;1.33;;;16.80;21.10;;;;;;4990791;28;20504;-71
2022/10/06 09:29:30;;;;;;;3.73;1.23;;;16.90;20.30;;;;;;5008601;28;20827;-74
2022/10/06 09:32:01;;;;;;;6.43;1.27;;;16.80;17.70;;;;;;5019093;28;20411;-71
2022/10/06 09:34:37;;;;;;;4.63;2.00;;;16.80;16.30;;;;;;5018757;28;20580;-72
2022/10/06 09:37:08;;;;;;;13.40;1.50;;;16.90;15.80;;;;;;5010382;28;20465;-70
2022/10/06 09:39:38;;;;;;;4.00;1.50;;;17.00;14.10;;;;;;5010414;28;20392;-71
2022/10/06 09:42:15;;;;;;;6.40;1.40;;;16.90;13.20;;;;;;4990758;28;20444;-69
2022/10/06 09:44:53;;;;;;;6.40;2.00;;;16.90;12.30;;;;;;4998664;28;20456;-72
2022/10/06 09:47:43;;;;;;;3.80;1.20;;;16.90;12.00;;;;;;5008386;28;20811;-71
2022/10/06 09:50:20;;;;;;;8.40;1.83;;;16.70;10.60;;;;;;5009524;28;20411;-70
2022/10/06 09:53:20;;;;;;;7.93;2.00;;;16.80;10.60;;;;;;5010417;28;20380;-69
2022/10/06 09:55:53;;;;;;;2.90;1.20;;;16.80;8.70;;;;;;4964578;28;20451;-73
2022/10/06 09:58:31;;;;;;;4.87;1.30;;;16.50;6.00;;;;;;4994640;28;20468;-70
2022/10/06 10:01:03;;;;;;;2.50;1.33;;;16.40;5.20;;;;;;5007213;28;20404;-70
2022/10/06 10:03:45;;;;;;;4.37;1.63;;;16.50;4.40;;;;;;4990837;28;20408;-71
2022/10/06 10:06:35;;;;;;;2.70;1.20;;;16.50;2.90;;;;;;4995068;28;20450;-71
2022/10/06 10:09:21;;;;;;;4.73;1.27;;;16.60;2.20;;;;;;5010951;28;20862;-72
2022/10/06 10:12:30;;;;;;;3.03;1.30;;;16.70;1.70;;;;;;5014401;28;20458;-70
2022/10/06 10:15:03;;;;;;;1.70;1.03;;;16.90;1.90;;;;;;5001425;28;20463;-71
2022/10/06 10:17:48;;;;;;;7.47;2.03;;;17.10;3.40;;;;;;5012232;28;20857;-71
2022/10/06 10:20:28;;;;;;;2.80;1.17;;;17.10;7.30;;;;;;5006304;28;20487;-69
2022/10/06 10:22:59;;;;;;;7.00;2.00;;;17.10;1.00;;;;;;4999192;28;20426;-71
2022/10/06 10:25:46;;;;;;;8.00;2.17;;;17.20;1.00;;;;;;5009861;28;20464;-69
2022/10/06 10:28:27;;;;;;;8.10;1.47;;;17.20;1.00;;;;;;5007727;28;20435;-70
2022/10/06 10:31:06;;;;;;;6.07;1.23;;;17.50;1.00;;;;;;5014280;28;20408;-70
2022/10/06 10:33:41;;;;;;;3.60;1.43;;;17.50;1.00;;;;;;5006681;28;20476;-71
2022/10/06 10:36:34;;;;;;;3.47;1.20;;;17.40;1.00;;;;;;5011073;28;20608;-71
2022/10/06 10:39:11;;;;;;;6.40;2.60;;;17.50;1.00;;;;;;5000454;28;20435;-71
2022/10/06 10:41:46;;;;;;;3.27;1.70;;;17.20;1.00;;;;;;5008157;28;20433;-70
2022/10/06 10:44:28;;;;;;;4.27;1.07;;;17.10;1.00;;;;;;5007633;28;20400;-70
2022/10/06 10:47:08;;;;;;;3.00;1.30;;;17.00;1.00;;;;;;5005484;28;20438;-70
2022/10/06 10:49:40;;;;;;;5.37;1.10;;;17.00;1.00;;;;;;5009950;28;20395;-68
2022/10/06 10:52:15;;;;;;;3.93;1.63;;;17.10;1.00;;;;;;5010570;28;20773;-70
2022/10/06 10:54:49;;;;;;;1.87;1.20;;;17.20;1.00;;;;;;5005396;28;20866;-71
2022/10/06 10:57:21;;;;;;;7.10;1.93;;;17.40;1.00;;;;;;5006378;28;20399;-69
2022/10/06 10:59:58;;;;;;;2.03;1.13;;;17.50;1.00;;;;;;5009287;28;20828;-70
2022/10/06 11:02:30;;;;;;;6.73;1.50;;;17.70;1.00;;;;;;5004403;28;20465;-71
2022/10/06 11:05:03;;;;;;;2.77;1.23;;;17.70;1.00;;;;;;5013451;28;20438;-70
2022/10/06 11:07:38;;;;;;;6.30;1.70;;;17.80;1.00;;;;;;5009322;28;20450;-69
2022/10/06 11:10:15;;;;;;;3.10;0.93;;;17.40;1.00;;;;;;5011452;28;20475;-70
2022/10/06 11:13:00;;;;;;;7.70;1.53;;;17.50;1.00;;;;;;5009711;28;20432;-70
2022/10/06 11:15:46;;;;;;;5.03;1.50;;;17.60;1.00;;;;;;5009824;28;20448;-74
2022/10/06 11:18:30;;;;;;;6.87;1.50;;;17.90;1.00;;;;;;5000608;28;20458;-69
2022/10/06 11:21:04;;;;;;;3.30;1.10;;;18.20;1.00;;;;;;5012468;28;20404;-70
2022/10/06 11:23:53;;;;;;;3.87;0.93;;;18.40;1.00;;;;;;5003419;28;20438;-70
2022/10/06 11:26:36;;;;;;;4.60;1.10;;;18.40;1.00;;;;;;5016592;28;20453;-72
2022/10/06 11:29:19;;;;;;;2.10;1.00;;;18.20;1.00;;;;;;5005789;28;20421;-69
2022/10/06 11:31:58;;;;;;;4.20;1.00;;;17.90;1.00;;;;;;5013495;28;20785;-71
2022/10/06 11:34:28;;;;;;;5.67;1.90;;;17.60;1.00;;;;;;5013311;28;20399;-69
2022/10/06 11:37:05;;;;;;;1.93;1.10;;;17.60;1.00;;;;;;5013283;28;20416;-70
2022/10/06 11:39:51;;;;;;;5.27;1.80;;;17.60;1.00;;;;;;4994604;28;20428;-72
2022/10/06 11:42:25;;;;;;;10.43;2.80;;;17.70;1.00;;;;;;5011511;28;20415;-70
2022/10/06 11:44:59;;;;;;;6.20;1.10;;;17.60;1.00;;;;;;5011711;28;20452;-70
2022/10/06 11:47:33;;;;;;;5.00;1.10;;;17.80;1.00;;;;;;5019127;28;20408;-69
2022/10/06 11:50:33;;;;;;;2.37;1.10;;;17.80;1.00;;;;;;5004546;28;20446;-72
2022/10/06 11:53:01;;;;;;;4.30;1.07;;;18.00;1.00;;;;;;5009916;28;20950;-70
2022/10/06 11:55:30;;;;;;;2.83;1.17;;;18.10;1.00;;;;;;4995367;28;20415;-72
2022/10/06 11:58:10;;;;;;;3.67;1.50;;;18.30;1.00;;;;;;5013701;28;20498;-72
2022/10/06 12:01:00;;;;;;;3.37;1.20;;;18.20;1.00;;;;;;5003131;28;20448;-71
2022/10/06 12:03:46;;;;;;;3.23;1.20;;;18.00;1.00;;;;;;5004947;28;20432;-70
2022/10/06 12:06:51;;;;;;;2.30;1.10;;;17.70;1.00;;;;;;5008999;28;20426;-70
2022/10/06 12:09:50;;;;;;;2.17;0.90;;;17.60;1.00;;;;;;5010865;28;20444;-68
2022/10/06 12:13:02;;;;;;;9.47;1.80;;;17.40;1.00;;;;;;5009098;28;20441;-69
2022/10/06 12:16:08;;;;;;;6.03;1.23;;;17.50;1.00;;;;;;4952365;28;20430;-69
2022/10/06 12:19:18;;;;;;;3.67;1.37;;;17.60;1.00;;;;;;4929013;29;21010;-69
2022/10/06 12:21:53;;;;;;;1.70;1.00;;;17.50;1.00;;;;;;5009354;28;20408;-69
2022/10/06 12:24:41;;;;;;;5.77;2.00;;;17.60;1.00;;;;;;5010621;28;20415;-70
2022/10/06 12:27:37;;;;;;;5.20;1.00;;;17.70;1.00;;;;;;5004961;28;20773;-68
2022/10/06 12:30:21;;;;;;;3.50;1.20;;;17.70;1.00;;;;;;5007898;28;20819;-69
2022/10/06 12:32:53;;;;;;;6.20;1.40;;;17.70;1.00;;;;;;5007827;28;20444;-69
2022/10/06 12:35:47;;;;;;;3.50;1.10;;;17.80;1.00;;;;;;5007041;28;20829;-70
2022/10/06 12:38:42;;;;;;;2.70;1.60;;;18.10;1.00;;;;;;5007267;28;20970;-69
2022/10/06 12:41:11;;;;;;;4.73;1.27;;;18.40;1.00;;;;;;5005552;28;20426;-68
2022/10/06 12:44:21;;;;;;;3.63;1.10;;;18.40;1.00;;;;;;5009856;28;20953;-69
2022/10/06 12:46:50;;;;;;;4.80;1.30;;;18.60;1.00;;;;;;4993253;28;20426;-68
2022/10/06 12:49:44;;;;;;;2.90;1.30;;;18.70;1.00;;;;;;4999936;28;20880;-69
2022/10/06 12:52:34;;;;;;;2.10;1.00;;;18.80;1.00;;;;;;4998938;28;20635;-70
2022/10/06 12:55:22;;;;;;;4.13;1.30;;;18.70;1.00;;;;;;5001653;28;21043;-70
2022/10/06 12:57:52;;;;;;;4.10;0.90;;;18.60;1.00;;;;;;4992213;28;20431;-71
2022/10/06 13:00:33;;;;;;;5.23;1.10;;;18.50;1.00;;;;;;5002934;28;20462;-69
2022/10/06 13:03:05;;;;;;;3.10;1.20;;;18.20;1.00;;;;;;4998872;28;20412;-69
2022/10/06 13:05:35;;;;;;;4.13;1.33;;;17.80;1.00;;;;;;5001238;28;20458;-69
2022/10/06 13:08:05;;;;;;;5.27;1.13;;;17.70;1.00;;;;;;5001286;28;20492;-71
2022/10/06 13:10:34;;;;;;;3.60;0.93;;;17.60;1.00;;;;;;5001169;28;20465;-70
2022/10/06 13:13:18;;;;;;;6.80;1.30;;;17.60;1.00;;;;;;5000577;28;20425;-68
2022/10/06 13:15:48;;;;;;;4.30;1.80;;;17.80;1.00;;;;;;5002494;28;20431;-69
2022/10/06 13:18:19;;;;;;;3.57;1.80;;;17.90;1.00;;;;;;5006467;28;20451;-69
2022/10/06 13:20:50;;;;;;;9.60;1.40;;;18.00;1.00;;;;;;5000964;28;20489;-70
2022/10/06 13:23:27;;;;;;;5.03;1.40;;;18.00;1.00;;;;;;5004356;28;20806;-69
2022/10/06 13:25:58;;;;;;;3.67;1.33;;;18.00;1.00;;;;;;5003044;28;20953;-69
2022/10/06 13:28:30;;;;;;;9.10;4.00;;;18.10;1.00;;;;;;5000311;28;20450;-70
2022/10/06 13:31:02;;;;;;;4.40;1.30;;;18.10;1.00;;;;;;5000447;28;21208;-70
2022/10/06 13:33:33;;;;;;;7.43;1.10;;;18.10;1.00;;;;;;5007322;28;20474;-70
2022/10/06 13:36:02;;;;;;;4.37;1.30;;;18.20;1.00;;;;;;5006183;28;20461;-69
2022/10/06 13:38:33;;;;;;;6.60;1.30;;;18.20;1.00;;;;;;5005528;28;20449;-69
2022/10/06 13:41:07;;;;;;;6.40;1.10;;;18.40;1.00;;;;;;5004573;28;20506;-69
2022/10/06 13:43:41;;;;;;;5.60;1.10;;;18.50;1.00;;;;;;5001243;28;20692;-70